createdAt,value
2019-04-04T00:00:47.850Z,94.10
2019-04-04T00:01:33.441Z,94.20
2019-04-04T00:02:11.172Z,94.20
2019-04-04T00:02:49.795Z,94.20
2019-04-04T00:03:27.184Z,94.30
2019-04-04T00:04:04.732Z,94.30
2019-04-04T00:04:41.206Z,94.30
2019-04-04T00:05:18.360Z,94.30
2019-04-04T00:05:56.611Z,94.30
2019-04-04T00:06:34.647Z,94.50
2019-04-04T00:07:12.306Z,94.40
2019-04-04T00:07:49.892Z,94.60
2019-04-04T00:08:28.983Z,94.50
2019-04-04T00:09:09.810Z,94.60
2019-04-04T00:09:47.264Z,94.60
2019-04-04T00:10:24.669Z,94.60
2019-04-04T00:11:04.105Z,94.60
2019-04-04T00:11:42.180Z,94.60
2019-04-04T00:12:19.834Z,94.90
2019-04-04T00:12:57.068Z,94.60
2019-04-04T00:13:34.426Z,94.60
2019-04-04T00:14:13.018Z,94.60
2019-04-04T00:14:50.781Z,94.60
2019-04-04T00:15:28.613Z,94.70
2019-04-04T00:16:05.794Z,94.90
2019-04-04T00:16:42.674Z,94.60
2019-04-04T00:17:22.921Z,94.70
2019-04-04T00:17:58.476Z,94.70
2019-04-04T00:18:36.184Z,94.70
2019-04-04T00:19:13.880Z,94.70
2019-04-04T00:19:51.776Z,94.80
2019-04-04T00:20:29.858Z,94.80
2019-04-04T00:21:07.945Z,95.10
2019-04-04T00:21:45.407Z,94.80
2019-04-04T00:22:22.901Z,94.90
2019-04-04T00:23:00.844Z,94.90
2019-04-04T00:23:38.593Z,94.80
2019-04-04T00:24:16.070Z,94.80
2019-04-04T00:24:53.916Z,94.90
2019-04-04T00:25:31.392Z,94.90
2019-04-04T00:26:10.876Z,94.90
2019-04-04T00:26:48.528Z,95.00
2019-04-04T00:27:26.247Z,95.00
2019-04-04T00:28:03.826Z,95.00
2019-04-04T00:28:41.355Z,95.00
2019-04-04T00:29:19.058Z,95.00
2019-04-04T00:29:56.144Z,95.10
2019-04-04T00:30:33.920Z,95.10
2019-04-04T00:31:11.803Z,95.10
2019-04-04T00:31:49.859Z,95.20
2019-04-04T00:32:27.745Z,95.20
2019-04-04T00:33:05.414Z,95.20
2019-04-04T00:33:42.532Z,95.20
2019-04-04T00:34:19.724Z,95.40
2019-04-04T00:34:57.862Z,95.10
2019-04-04T00:35:36.556Z,95.20
2019-04-04T00:36:13.948Z,95.30
2019-04-04T00:36:51.729Z,95.20
2019-04-04T00:37:29.150Z,95.20
2019-04-04T00:38:07.132Z,95.20
2019-04-04T00:38:45.144Z,95.00
2019-04-04T00:39:22.476Z,95.20
2019-04-04T00:39:59.548Z,95.30
2019-04-04T00:40:37.352Z,95.30
2019-04-04T00:41:14.602Z,95.30
2019-04-04T00:41:52.315Z,95.30
2019-04-04T00:42:29.088Z,95.30
2019-04-04T00:43:06.324Z,95.30
2019-04-04T00:43:43.841Z,95.30
2019-04-04T00:44:23.181Z,95.40
2019-04-04T00:45:00.403Z,95.40
2019-04-04T00:45:37.512Z,95.40
2019-04-04T00:46:14.638Z,95.40
2019-04-04T00:46:52.017Z,95.40
2019-04-04T00:47:28.780Z,95.60
2019-04-04T00:48:05.880Z,95.50
2019-04-04T00:48:42.316Z,95.50
2019-04-04T00:49:19.428Z,95.50
2019-04-04T00:49:56.588Z,95.50
2019-04-04T00:50:34.891Z,95.80
2019-04-04T00:51:12.637Z,95.50
2019-04-04T00:51:50.440Z,95.50
2019-04-04T00:52:27.582Z,95.40
2019-04-04T00:53:04.812Z,95.50
2019-04-04T00:53:43.052Z,95.50
2019-04-04T00:54:20.972Z,95.50
2019-04-04T00:54:58.478Z,95.50
2019-04-04T00:55:36.080Z,95.60
2019-04-04T00:56:13.583Z,95.60
2019-04-04T00:56:50.484Z,95.60
2019-04-04T00:57:27.032Z,95.60
2019-04-04T00:58:04.402Z,95.60
2019-04-04T00:58:42.098Z,95.70
2019-04-04T00:59:22.627Z,95.60
2019-04-04T00:59:58.660Z,95.70
2019-04-04T01:00:37.061Z,95.70
2019-04-04T01:01:14.332Z,95.80
2019-04-04T01:01:51.438Z,95.80
2019-04-04T01:02:28.496Z,95.80
2019-04-04T01:03:06.216Z,95.70
2019-04-04T01:03:43.736Z,95.70
2019-04-04T01:04:21.141Z,95.80
2019-04-04T01:05:01.309Z,95.80
2019-04-04T01:05:38.136Z,95.80
2019-04-04T01:06:15.798Z,95.80
2019-04-04T01:06:53.284Z,95.80
2019-04-04T01:07:30.696Z,95.80
2019-04-04T01:08:08.156Z,95.80
2019-04-04T01:08:44.939Z,95.90
2019-04-04T01:09:22.709Z,95.90
2019-04-04T01:09:59.933Z,95.90
2019-04-04T01:10:37.631Z,95.90
2019-04-04T01:11:15.788Z,95.90
2019-04-04T01:11:52.911Z,95.90
2019-04-04T01:12:30.630Z,96.00
2019-04-04T01:13:08.164Z,96.00
2019-04-04T01:13:45.540Z,96.00
2019-04-04T01:14:23.324Z,96.00
2019-04-04T01:15:01.292Z,95.90
2019-04-04T01:15:39.222Z,96.00
2019-04-04T01:16:16.650Z,96.10
2019-04-04T01:16:54.232Z,96.00
2019-04-04T01:17:33.016Z,96.00
2019-04-04T01:18:10.905Z,96.00
2019-04-04T01:18:48.279Z,96.10
2019-04-04T01:19:25.845Z,96.10
2019-04-04T01:20:03.645Z,96.10
2019-04-04T01:20:40.672Z,96.20
2019-04-04T01:21:18.161Z,96.10
2019-04-04T01:21:55.773Z,96.20
2019-04-04T01:22:33.394Z,96.20
2019-04-04T01:23:10.502Z,96.20
2019-04-04T01:23:48.279Z,96.20
2019-04-04T01:24:27.143Z,96.30
2019-04-04T01:25:04.809Z,96.30
2019-04-04T01:25:42.578Z,96.30
2019-04-04T01:26:20.140Z,96.30
2019-04-04T01:26:57.928Z,96.30
2019-04-04T01:27:37.006Z,96.30
2019-04-04T01:28:14.324Z,96.40
2019-04-04T01:28:51.113Z,96.30
2019-04-04T01:29:28.869Z,96.20
2019-04-04T01:30:08.117Z,96.40
2019-04-04T01:30:45.757Z,96.30
2019-04-04T01:31:23.201Z,96.30
2019-04-04T01:31:59.653Z,96.40
2019-04-04T01:32:37.208Z,96.40
2019-04-04T01:33:14.662Z,96.40
2019-04-04T01:33:52.392Z,96.40
2019-04-04T01:34:30.565Z,96.50
2019-04-04T01:35:08.585Z,96.50
2019-04-04T01:35:45.636Z,96.50
2019-04-04T01:36:23.204Z,96.60
2019-04-04T01:37:02.167Z,96.60
2019-04-04T01:37:39.572Z,96.60
2019-04-04T01:38:16.996Z,96.70
2019-04-04T01:38:54.763Z,96.70
2019-04-04T01:39:32.397Z,96.70
2019-04-04T01:40:10.685Z,96.70
2019-04-04T01:40:48.007Z,96.70
2019-04-04T01:41:25.124Z,96.70
2019-04-04T01:42:02.531Z,96.70
2019-04-04T01:42:40.507Z,96.80
2019-04-04T01:43:17.710Z,96.80
2019-04-04T01:44:04.926Z,96.80
2019-04-04T01:44:34.796Z,96.80
2019-04-04T01:45:13.093Z,96.80
2019-04-04T01:45:50.917Z,96.90
2019-04-04T01:46:28.858Z,96.90
2019-04-04T01:47:18.763Z,96.90
2019-04-04T01:47:56.498Z,96.90
2019-04-04T01:48:33.939Z,96.90
2019-04-04T01:49:11.915Z,96.90
2019-04-04T01:49:49.914Z,97.00
2019-04-04T01:50:27.570Z,97.00
2019-04-04T01:51:07.719Z,97.00
2019-04-04T01:51:44.066Z,97.10
2019-04-04T01:52:21.237Z,97.00
2019-04-04T01:52:59.280Z,97.10
2019-04-04T01:53:37.153Z,97.10
2019-04-04T01:54:14.873Z,97.10
2019-04-04T01:54:52.132Z,97.10
2019-04-04T01:55:29.195Z,97.20
2019-04-04T01:56:07.090Z,97.10
2019-04-04T01:56:44.563Z,97.20
2019-04-04T01:57:21.784Z,97.20
2019-04-04T01:57:59.289Z,97.20
2019-04-04T01:58:36.740Z,97.20
2019-04-04T01:59:14.116Z,97.30
2019-04-04T01:59:51.749Z,97.30
2019-04-04T02:00:29.176Z,97.30
2019-04-04T02:01:06.779Z,97.30
2019-04-04T02:01:46.699Z,97.30
2019-04-04T02:02:23.895Z,97.40
2019-04-04T02:03:01.291Z,97.40
2019-04-04T02:03:39.269Z,97.40
2019-04-04T02:04:17.258Z,97.40
2019-04-04T02:04:55.962Z,97.40
2019-04-04T02:05:34.348Z,97.40
2019-04-04T02:06:11.912Z,97.40
2019-04-04T02:06:51.128Z,97.50
2019-04-04T02:07:29.843Z,97.50
2019-04-04T02:08:08.049Z,97.60
2019-04-04T02:08:45.125Z,97.50
2019-04-04T02:09:23.148Z,97.60
2019-04-04T02:10:00.264Z,97.60
2019-04-04T02:10:37.975Z,97.60
2019-04-04T02:11:15.071Z,97.60
2019-04-04T02:11:52.930Z,97.60
2019-04-04T02:12:30.916Z,97.60
2019-04-04T02:13:09.833Z,97.60
2019-04-04T02:13:47.767Z,97.70
2019-04-04T02:14:25.502Z,97.60
2019-04-04T02:15:02.909Z,97.60
2019-04-04T02:15:40.333Z,97.60
2019-04-04T02:16:18.481Z,97.70
2019-04-04T02:16:56.381Z,97.60
2019-04-04T02:17:34.208Z,97.70
2019-04-04T02:18:11.809Z,97.70
2019-04-04T02:18:49.449Z,97.70
2019-04-04T02:19:26.951Z,97.80
2019-04-04T02:20:05.236Z,97.80
2019-04-04T02:20:43.307Z,97.80
2019-04-04T02:21:21.002Z,97.80
2019-04-04T02:21:59.859Z,97.80
2019-04-04T02:22:38.160Z,97.80
2019-04-04T02:23:16.141Z,97.90
2019-04-04T02:23:54.020Z,97.90
2019-04-04T02:24:32.324Z,97.90
2019-04-04T02:25:10.229Z,97.90
2019-04-04T02:25:48.088Z,97.90
2019-04-04T02:26:25.688Z,97.90
2019-04-04T02:27:02.763Z,97.90
2019-04-04T02:27:39.835Z,97.90
2019-04-04T02:28:17.547Z,98.00
2019-04-04T02:28:54.588Z,98.00
2019-04-04T02:29:31.724Z,98.00
2019-04-04T02:30:14.593Z,98.00
2019-04-04T02:30:49.301Z,98.00
2019-04-04T02:31:28.894Z,98.00
2019-04-04T02:32:09.695Z,98.00
2019-04-04T02:32:47.446Z,98.00
2019-04-04T02:33:24.243Z,98.10
2019-04-04T02:34:05.336Z,98.10
2019-04-04T02:34:41.301Z,98.40
2019-04-04T02:35:18.796Z,98.10
2019-04-04T02:35:56.723Z,98.20
2019-04-04T02:36:34.169Z,98.20
2019-04-04T02:37:11.272Z,98.20
2019-04-04T02:37:49.104Z,98.20
2019-04-04T02:38:28.025Z,98.20
2019-04-04T02:39:10.326Z,98.20
2019-04-04T02:39:48.438Z,98.20
2019-04-04T02:40:26.205Z,98.20
2019-04-04T02:41:03.387Z,98.10
2019-04-04T02:41:47.822Z,98.10
2019-04-04T02:42:23.297Z,98.10
2019-04-04T02:43:00.726Z,98.20
2019-04-04T02:43:38.189Z,98.20
2019-04-04T02:44:16.154Z,98.20
2019-04-04T02:44:53.449Z,98.20
2019-04-04T02:45:30.254Z,98.20
2019-04-04T02:46:11.054Z,98.20
2019-04-04T02:46:48.075Z,98.30
2019-04-04T02:47:25.681Z,98.20
2019-04-04T02:48:03.309Z,98.20
2019-04-04T02:48:41.038Z,98.20
2019-04-04T02:49:19.113Z,98.20
2019-04-04T02:50:00.582Z,98.10
2019-04-04T02:50:36.428Z,98.20
2019-04-04T02:51:13.977Z,98.20
2019-04-04T02:51:52.007Z,98.20
2019-04-04T02:52:29.143Z,98.20
2019-04-04T02:53:06.737Z,98.20
2019-04-04T02:53:44.446Z,98.30
2019-04-04T02:54:24.649Z,98.30
2019-04-04T02:55:01.445Z,98.30
2019-04-04T02:55:39.532Z,98.30
2019-04-04T02:56:17.394Z,98.30
2019-04-04T02:56:54.663Z,98.50
2019-04-04T02:57:32.454Z,98.30
2019-04-04T02:58:13.941Z,98.30
2019-04-04T02:58:49.759Z,98.30
2019-04-04T02:59:30.414Z,98.30
2019-04-04T03:00:08.718Z,98.30
2019-04-04T03:00:47.231Z,98.10
2019-04-04T03:01:25.037Z,98.40
2019-04-04T03:02:05.844Z,98.30
2019-04-04T03:02:42.481Z,98.40
2019-04-04T03:03:20.664Z,98.40
2019-04-04T03:03:59.475Z,98.40
2019-04-04T03:04:37.521Z,98.40
2019-04-04T03:05:18.755Z,98.40
2019-04-04T03:05:54.835Z,98.50
2019-04-04T03:06:32.720Z,98.50
2019-04-04T03:07:10.241Z,98.50
2019-04-04T03:07:48.442Z,98.50
2019-04-04T03:08:25.735Z,98.50
2019-04-04T03:09:03.896Z,98.50
2019-04-04T03:09:43.547Z,98.50
2019-04-04T03:10:21.270Z,98.50
2019-04-04T03:10:59.372Z,98.60
2019-04-04T03:11:37.258Z,98.50
2019-04-04T03:12:15.270Z,98.50
2019-04-04T03:12:52.877Z,98.60
2019-04-04T03:13:32.153Z,98.60
2019-04-04T03:14:09.524Z,98.60
2019-04-04T03:14:50.255Z,98.60
2019-04-04T03:15:27.067Z,98.70
2019-04-04T03:16:05.341Z,98.70
2019-04-04T03:16:43.608Z,98.70
2019-04-04T03:17:21.554Z,98.70
2019-04-04T03:18:03.893Z,98.70
2019-04-04T03:18:39.095Z,98.70
2019-04-04T03:19:16.615Z,98.80
2019-04-04T03:20:00.143Z,98.80
2019-04-04T03:20:37.933Z,98.70
2019-04-04T03:21:15.813Z,98.80
2019-04-04T03:21:55.852Z,98.80
2019-04-04T03:22:33.137Z,98.80
2019-04-04T03:23:17.803Z,98.90
2019-04-04T03:23:55.813Z,98.90
2019-04-04T03:24:33.380Z,98.90
2019-04-04T03:25:14.313Z,98.90
2019-04-04T03:25:50.252Z,99.40
2019-04-04T03:26:27.996Z,99.00
2019-04-04T03:27:06.316Z,99.50
2019-04-04T03:27:44.151Z,99.00
2019-04-04T03:28:22.378Z,99.50
2019-04-04T03:29:04.307Z,99.50
2019-04-04T03:29:39.562Z,99.60
2019-04-04T03:30:17.727Z,99.60
2019-04-04T03:31:02.595Z,99.60
2019-04-04T03:31:37.499Z,99.60
2019-04-04T03:32:20.780Z,99.70
2019-04-04T03:32:58.931Z,99.70
2019-04-04T03:33:36.890Z,99.80
2019-04-04T03:34:14.879Z,99.80
2019-04-04T03:34:52.899Z,99.80
2019-04-04T03:35:31.637Z,99.90
2019-04-04T03:36:09.062Z,99.80
2019-04-04T03:36:46.917Z,99.80
2019-04-04T03:37:24.657Z,99.90
2019-04-04T03:38:02.123Z,99.90
2019-04-04T03:38:39.458Z,99.90
2019-04-04T03:39:19.235Z,99.90
2019-04-04T03:39:55.679Z,99.90
2019-04-04T03:40:33.279Z,99.90
2019-04-04T03:41:11.118Z,99.90
2019-04-04T03:41:48.881Z,99.90
2019-04-04T03:42:26.630Z,99.90
2019-04-04T03:43:04.126Z,99.90
2019-04-04T03:43:41.266Z,99.90
2019-04-04T03:44:19.852Z,99.90
2019-04-04T03:44:58.277Z,99.90
2019-04-04T03:45:35.945Z,99.90
2019-04-04T03:46:13.374Z,99.90
2019-04-04T03:46:51.613Z,99.90
2019-04-04T03:47:29.439Z,99.90
2019-04-04T03:48:09.790Z,99.90
2019-04-04T03:48:50.847Z,99.90
2019-04-04T03:49:27.085Z,99.90
2019-04-04T03:50:05.089Z,99.90
2019-04-04T03:50:42.485Z,99.90
2019-04-04T03:51:19.718Z,99.90
2019-04-04T03:51:57.477Z,99.90
2019-04-04T03:52:35.080Z,99.90
2019-04-04T03:53:16.351Z,99.90
2019-04-04T03:53:54.027Z,99.90
2019-04-04T03:54:31.759Z,99.90
2019-04-04T03:55:08.887Z,99.90
2019-04-04T03:55:45.949Z,99.90
2019-04-04T03:56:23.837Z,99.90
2019-04-04T03:57:01.530Z,99.90
2019-04-04T03:57:39.565Z,99.90
2019-04-04T03:58:16.764Z,99.90
2019-04-04T03:58:54.401Z,99.90
2019-04-04T03:59:33.202Z,99.90
2019-04-04T04:00:12.873Z,99.90
2019-04-04T04:00:50.646Z,99.90
2019-04-04T04:01:28.816Z,99.90
2019-04-04T04:02:06.172Z,99.90
2019-04-04T04:02:43.996Z,99.90
2019-04-04T04:03:22.705Z,99.90
2019-04-04T04:04:01.392Z,99.90
2019-04-04T04:04:38.950Z,99.90
2019-04-04T04:05:26.365Z,99.90
2019-04-04T04:06:08.317Z,99.90
2019-04-04T04:06:43.495Z,99.90
2019-04-04T04:07:21.354Z,99.90
2019-04-04T04:07:59.297Z,99.90
2019-04-04T04:08:37.813Z,99.90
2019-04-04T04:09:14.885Z,99.90
2019-04-04T04:09:52.939Z,99.90
2019-04-04T04:10:33.400Z,99.90
2019-04-04T04:11:09.709Z,99.90
2019-04-04T04:11:50.462Z,99.90
2019-04-04T04:12:27.914Z,99.90
2019-04-04T04:13:05.518Z,99.90
2019-04-04T04:13:43.256Z,99.90
2019-04-04T04:14:22.141Z,99.90
2019-04-04T04:15:00.337Z,99.90
2019-04-04T04:15:38.863Z,99.90
2019-04-04T04:16:16.724Z,99.90
2019-04-04T04:17:02.705Z,99.90
2019-04-04T04:17:45.094Z,99.90
2019-04-04T04:18:21.252Z,99.90
2019-04-04T04:18:59.751Z,99.90
2019-04-04T04:19:37.148Z,99.90
2019-04-04T04:20:15.208Z,99.90
2019-04-04T04:20:53.198Z,99.90
2019-04-04T04:21:30.637Z,99.90
2019-04-04T04:22:12.603Z,99.90
2019-04-04T04:22:51.079Z,99.90
2019-04-04T04:23:28.080Z,99.90
2019-04-04T04:24:06.076Z,99.90
2019-04-04T04:24:43.803Z,99.90
2019-04-04T04:25:21.706Z,99.90
2019-04-04T04:25:59.473Z,99.90
2019-04-04T04:26:41.002Z,99.90
2019-04-04T04:27:16.468Z,99.90
2019-04-04T04:27:53.961Z,99.90
2019-04-04T04:28:31.433Z,99.90
2019-04-04T04:29:08.959Z,99.90
2019-04-04T04:29:47.008Z,99.90
2019-04-04T04:30:24.778Z,99.90
2019-04-04T04:31:02.657Z,99.90
2019-04-04T04:31:40.144Z,99.90
2019-04-04T04:32:21.266Z,99.90
2019-04-04T04:32:57.625Z,99.90
2019-04-04T04:33:35.447Z,99.90
2019-04-04T04:34:13.498Z,99.90
2019-04-04T04:34:50.925Z,99.90
2019-04-04T04:35:28.919Z,99.90
2019-04-04T04:36:09.440Z,99.90
2019-04-04T04:36:47.715Z,99.90
2019-04-04T04:37:24.734Z,99.90
2019-04-04T04:38:02.645Z,99.90
2019-04-04T04:38:39.387Z,99.90
2019-04-04T04:39:17.218Z,99.90
2019-04-04T04:39:54.746Z,99.90
2019-04-04T04:40:32.429Z,99.90
2019-04-04T04:41:10.245Z,99.90
2019-04-04T04:41:47.845Z,99.90
2019-04-04T04:42:26.571Z,99.90
2019-04-04T04:43:05.019Z,99.90
2019-04-04T04:43:42.732Z,99.90
2019-04-04T04:44:20.415Z,99.90
2019-04-04T04:44:58.337Z,99.90
2019-04-04T04:45:35.639Z,99.90
2019-04-04T04:46:16.913Z,99.90
2019-04-04T04:46:52.230Z,99.90
2019-04-04T04:47:29.611Z,99.90
2019-04-04T04:48:07.649Z,99.90
2019-04-04T04:48:45.460Z,99.90
2019-04-04T04:49:23.492Z,99.90
2019-04-04T04:50:00.963Z,99.90
2019-04-04T04:50:40.484Z,99.90
2019-04-04T04:51:17.863Z,99.90
2019-04-04T04:51:55.758Z,99.90
2019-04-04T04:52:33.223Z,99.90
2019-04-04T04:53:11.061Z,99.90
2019-04-04T04:53:50.652Z,99.90
2019-04-04T04:54:27.915Z,99.90
2019-04-04T04:55:05.897Z,99.90
2019-04-04T04:55:43.640Z,99.90
2019-04-04T04:56:21.000Z,99.90
2019-04-04T04:56:58.756Z,99.90
2019-04-04T04:57:37.020Z,99.90
2019-04-04T04:58:15.654Z,99.90
2019-04-04T04:58:55.522Z,99.90
2019-04-04T04:59:32.351Z,99.90
2019-04-04T05:00:10.168Z,99.90
2019-04-04T05:00:48.163Z,99.90
2019-04-04T05:01:25.664Z,99.90
2019-04-04T05:02:02.618Z,99.90
2019-04-04T05:02:40.374Z,99.90
2019-04-04T05:03:17.538Z,99.90
2019-04-04T05:03:56.472Z,99.90
2019-04-04T05:04:35.287Z,99.90
2019-04-04T05:05:13.499Z,99.90
2019-04-04T05:05:51.034Z,99.90
2019-04-04T05:06:29.049Z,99.90
2019-04-04T05:07:07.461Z,99.90
2019-04-04T05:07:45.826Z,99.90
2019-04-04T05:08:23.321Z,99.90
2019-04-04T05:09:01.339Z,99.90
2019-04-04T05:09:38.815Z,99.90
2019-04-04T05:10:16.661Z,99.90
2019-04-04T05:10:54.454Z,99.90
2019-04-04T05:11:31.843Z,99.90
2019-04-04T05:12:09.852Z,99.90
2019-04-04T05:12:47.927Z,99.90
2019-04-04T05:13:28.669Z,99.90
2019-04-04T05:14:05.493Z,99.70
2019-04-04T05:14:43.024Z,99.90
2019-04-04T05:15:21.360Z,99.60
2019-04-04T05:15:59.496Z,99.80
2019-04-04T05:16:37.912Z,99.60
2019-04-04T05:17:16.341Z,99.50
2019-04-04T05:17:54.089Z,99.50
2019-04-04T05:18:31.789Z,99.50
2019-04-04T05:19:09.449Z,99.40
2019-04-04T05:19:48.176Z,99.30
2019-04-04T05:20:29.726Z,99.30
2019-04-04T05:21:05.396Z,99.30
2019-04-04T05:21:43.082Z,99.30
2019-04-04T05:22:20.844Z,99.30
2019-04-04T05:22:58.258Z,99.30
2019-04-04T05:23:36.022Z,99.10
2019-04-04T05:24:32.267Z,99.40
2019-04-04T05:25:10.453Z,99.00
2019-04-04T05:25:53.832Z,99.00
2019-04-04T05:26:27.855Z,99.00
2019-04-04T05:27:06.154Z,98.90
2019-04-04T05:27:44.767Z,98.90
2019-04-04T05:28:22.462Z,98.80
2019-04-04T05:28:59.502Z,98.90
2019-04-04T05:29:37.485Z,98.80
2019-04-04T05:30:16.592Z,98.80
2019-04-04T05:30:54.402Z,98.70
2019-04-04T05:31:31.285Z,98.70
2019-04-04T05:32:08.943Z,98.70
2019-04-04T05:32:46.732Z,98.70
2019-04-04T05:33:26.876Z,98.70
2019-04-04T05:34:03.745Z,98.70
2019-04-04T05:34:40.824Z,98.70
2019-04-04T05:35:18.227Z,98.60
2019-04-04T05:35:56.078Z,98.60
2019-04-04T05:36:35.906Z,98.50
2019-04-04T05:37:13.047Z,98.60
2019-04-04T05:37:50.980Z,98.50
2019-04-04T05:38:28.338Z,98.50
2019-04-04T05:39:08.294Z,98.40
2019-04-04T05:39:46.938Z,98.40
2019-04-04T05:40:25.223Z,98.40
2019-04-04T05:41:02.744Z,98.40
2019-04-04T05:41:40.486Z,98.40
2019-04-04T05:42:17.715Z,98.40
2019-04-04T05:42:55.117Z,98.40
2019-04-04T05:43:32.796Z,98.40
2019-04-04T05:44:10.916Z,98.50
2019-04-04T05:44:48.212Z,98.30
2019-04-04T05:45:25.708Z,98.30
2019-04-04T05:46:03.216Z,98.30
2019-04-04T05:46:40.295Z,98.30
2019-04-04T05:47:17.666Z,98.40
2019-04-04T05:47:58.231Z,98.40
2019-04-04T05:48:34.139Z,98.50
2019-04-04T05:49:11.273Z,98.40
2019-04-04T05:49:48.707Z,98.40
2019-04-04T05:50:25.804Z,98.50
2019-04-04T05:51:03.530Z,98.30
2019-04-04T05:51:41.060Z,98.30
2019-04-04T05:52:18.575Z,98.30
2019-04-04T05:52:55.495Z,98.40
2019-04-04T05:53:35.037Z,98.30
2019-04-04T05:54:11.545Z,98.30
2019-04-04T05:54:49.384Z,98.40
2019-04-04T05:55:27.306Z,98.30
2019-04-04T05:56:06.541Z,98.20
2019-04-04T05:56:44.799Z,98.20
2019-04-04T05:57:42.924Z,98.30
2019-04-04T05:58:22.593Z,98.30
2019-04-04T05:58:59.796Z,98.20
2019-04-04T05:59:37.189Z,98.20
2019-04-04T06:00:16.200Z,98.30
2019-04-04T06:01:14.312Z,98.30
2019-04-04T06:01:51.736Z,98.20
2019-04-04T06:02:29.508Z,98.30
2019-04-04T06:03:07.021Z,98.30
2019-04-04T06:03:46.919Z,98.40
2019-04-04T06:04:23.792Z,98.40
2019-04-04T06:05:01.953Z,98.50
2019-04-04T06:05:39.374Z,98.50
2019-04-04T06:06:17.280Z,98.60
2019-04-04T06:06:55.723Z,98.60
2019-04-04T06:07:34.246Z,98.60
2019-04-04T06:08:12.247Z,98.90
2019-04-04T06:08:51.276Z,98.70
2019-04-04T06:09:28.738Z,98.70
2019-04-04T06:10:07.852Z,98.70
2019-04-04T06:10:45.579Z,98.70
2019-04-04T06:11:23.239Z,98.80
2019-04-04T06:12:00.747Z,98.70
2019-04-04T06:12:37.973Z,98.80
2019-04-04T06:13:15.652Z,98.80
2019-04-04T06:13:54.284Z,98.80
2019-04-04T06:14:31.404Z,98.90
2019-04-04T06:15:10.019Z,98.90
2019-04-04T06:15:47.686Z,98.90
2019-04-04T06:16:25.550Z,98.90
2019-04-04T06:17:03.084Z,98.90
2019-04-04T06:17:40.107Z,98.90
2019-04-04T06:18:17.465Z,98.90
2019-04-04T06:18:54.916Z,99.00
2019-04-04T06:19:32.082Z,99.00
2019-04-04T06:20:09.824Z,98.90
2019-04-04T06:20:48.664Z,99.00
2019-04-04T06:21:26.096Z,98.90
2019-04-04T06:22:03.429Z,99.00
2019-04-04T06:22:40.840Z,99.00
2019-04-04T06:23:20.439Z,99.00
2019-04-04T06:23:56.788Z,99.00
2019-04-04T06:24:33.974Z,99.00
2019-04-04T06:25:11.337Z,99.00
2019-04-04T06:25:48.972Z,99.00
2019-04-04T06:26:26.804Z,99.00
2019-04-04T06:27:04.090Z,99.10
2019-04-04T06:27:41.302Z,99.10
2019-04-04T06:28:17.752Z,99.00
2019-04-04T06:28:55.577Z,99.10
2019-04-04T06:29:32.706Z,99.10
2019-04-04T06:30:10.838Z,99.10
2019-04-04T06:30:48.558Z,99.10
2019-04-04T06:31:27.268Z,99.20
2019-04-04T06:32:04.805Z,99.20
2019-04-04T06:32:42.276Z,99.20
2019-04-04T06:33:19.388Z,99.10
2019-04-04T06:33:56.561Z,99.10
2019-04-04T06:34:34.038Z,99.20
2019-04-04T06:35:13.198Z,99.10
2019-04-04T06:35:50.703Z,99.10
2019-04-04T06:36:28.004Z,99.30
2019-04-04T06:37:05.558Z,99.10
2019-04-04T06:37:45.769Z,99.10
2019-04-04T06:38:23.342Z,99.10
2019-04-04T06:39:00.687Z,99.00
2019-04-04T06:39:41.707Z,99.10
2019-04-04T06:40:19.896Z,99.00
2019-04-04T06:40:57.008Z,99.00
2019-04-04T06:41:34.088Z,99.10
2019-04-04T06:42:11.564Z,99.10
2019-04-04T06:42:49.443Z,99.30
2019-04-04T06:43:26.348Z,99.00
2019-04-04T06:44:04.022Z,99.10
2019-04-04T06:44:43.748Z,99.10
2019-04-04T06:45:20.596Z,99.20
2019-04-04T06:45:57.522Z,99.10
2019-04-04T06:46:36.292Z,99.10
2019-04-04T06:47:16.359Z,99.10
2019-04-04T06:47:55.199Z,99.00
2019-04-04T06:48:33.766Z,99.10
2019-04-04T06:49:11.205Z,99.10
2019-04-04T06:49:48.886Z,99.10
2019-04-04T06:50:45.514Z,99.00
2019-04-04T06:51:23.029Z,99.00
2019-04-04T06:52:00.574Z,99.10
2019-04-04T06:52:38.055Z,99.00
2019-04-04T06:53:15.458Z,99.00
2019-04-04T06:53:53.691Z,98.90
2019-04-04T06:54:32.216Z,98.90
2019-04-04T06:55:10.226Z,98.90
2019-04-04T06:55:47.720Z,98.90
2019-04-04T06:56:25.200Z,98.90
2019-04-04T06:57:03.992Z,99.00
2019-04-04T06:57:41.624Z,98.90
2019-04-04T06:58:19.084Z,98.90
2019-04-04T06:58:56.546Z,98.90
2019-04-04T06:59:34.121Z,98.70
2019-04-04T07:00:15.380Z,98.60
2019-04-04T07:00:51.625Z,98.70
2019-04-04T07:01:29.182Z,98.70
2019-04-04T07:02:06.582Z,98.60
2019-04-04T07:02:44.057Z,98.70
2019-04-04T07:03:27.068Z,98.70
2019-04-04T07:04:02.987Z,98.70
2019-04-04T07:04:40.616Z,98.80
2019-04-04T07:05:17.454Z,98.80
2019-04-04T07:05:54.876Z,98.80
2019-04-04T07:06:32.400Z,98.60
2019-04-04T07:07:12.548Z,98.60
2019-04-04T07:07:48.821Z,98.70
2019-04-04T07:08:26.179Z,98.60
2019-04-04T07:09:05.147Z,98.60
2019-04-04T07:09:42.696Z,98.50
2019-04-04T07:10:21.862Z,98.50
2019-04-04T07:11:02.699Z,98.40
2019-04-04T07:11:38.196Z,98.60
2019-04-04T07:12:22.276Z,98.40
2019-04-04T07:13:14.902Z,98.40
2019-04-04T07:13:43.167Z,98.40
2019-04-04T07:14:20.609Z,98.30
2019-04-04T07:15:03.392Z,98.40
2019-04-04T07:15:46.591Z,98.30
2019-04-04T07:16:20.016Z,98.40
2019-04-04T07:16:57.443Z,98.50
2019-04-04T07:17:34.740Z,98.30
2019-04-04T07:18:30.961Z,98.30
2019-04-04T07:19:08.400Z,98.20
2019-04-04T07:19:46.173Z,98.30
2019-04-04T07:20:23.932Z,98.20
2019-04-04T07:21:03.573Z,98.10
2019-04-04T07:21:39.708Z,98.10
2019-04-04T07:22:20.409Z,98.10
2019-04-04T07:22:56.922Z,98.20
2019-04-04T07:23:34.422Z,98.20
2019-04-04T07:24:11.876Z,98.20
2019-04-04T07:24:49.790Z,98.30
2019-04-04T07:25:27.267Z,98.30
2019-04-04T07:26:05.529Z,98.20
2019-04-04T07:26:43.230Z,97.90
2019-04-04T07:27:21.574Z,97.90
2019-04-04T07:27:58.980Z,97.90
2019-04-04T07:28:36.068Z,97.80
2019-04-04T07:29:13.848Z,97.80
2019-04-04T07:29:51.538Z,97.80
2019-04-04T07:30:29.317Z,97.80
2019-04-04T07:31:07.010Z,97.80
2019-04-04T07:31:44.458Z,97.90
2019-04-04T07:32:21.986Z,98.00
2019-04-04T07:32:58.796Z,97.60
2019-04-04T07:33:36.283Z,97.50
2019-04-04T07:34:13.833Z,97.30
2019-04-04T07:34:52.107Z,97.30
2019-04-04T07:35:29.380Z,97.40
2019-04-04T07:36:07.089Z,97.40
2019-04-04T07:36:44.420Z,97.40
2019-04-04T07:37:22.777Z,97.40
2019-04-04T07:38:00.074Z,97.40
2019-04-04T07:38:37.566Z,97.20
2019-04-04T07:39:15.233Z,97.10
2019-04-04T07:39:52.939Z,97.20
2019-04-04T07:40:30.415Z,97.10
2019-04-04T07:41:08.967Z,96.80
2019-04-04T07:41:46.576Z,96.90
2019-04-04T07:42:23.748Z,97.00
2019-04-04T07:43:01.503Z,96.70
2019-04-04T07:43:39.521Z,96.80
2019-04-04T07:44:17.342Z,97.00
2019-04-04T07:44:55.155Z,97.00
2019-04-04T07:45:32.692Z,97.00
2019-04-04T07:46:16.144Z,96.90
2019-04-04T07:46:48.438Z,96.90
2019-04-04T07:47:26.303Z,96.80
2019-04-04T07:48:03.857Z,96.70
2019-04-04T07:48:41.113Z,96.70
2019-04-04T07:49:18.705Z,96.70
2019-04-04T07:49:56.107Z,96.50
2019-04-04T07:50:33.995Z,96.50
2019-04-04T07:51:10.926Z,96.50
2019-04-04T07:51:48.386Z,96.50
2019-04-04T07:52:25.688Z,96.60
2019-04-04T07:53:04.921Z,96.60
2019-04-04T07:53:41.845Z,96.70
2019-04-04T07:54:19.679Z,96.70
2019-04-04T07:54:57.163Z,96.50
2019-04-04T07:55:34.848Z,96.40
2019-04-04T07:56:14.349Z,96.20
2019-04-04T07:56:51.617Z,96.30
2019-04-04T07:57:30.291Z,96.40
2019-04-04T07:58:07.845Z,96.40
2019-04-04T07:58:45.361Z,96.50
2019-04-04T07:59:23.080Z,96.50
2019-04-04T08:00:00.644Z,96.40
2019-04-04T08:00:37.512Z,96.30
2019-04-04T08:01:15.304Z,96.30
2019-04-04T08:01:52.374Z,96.20
2019-04-04T08:02:29.920Z,96.20
2019-04-04T08:03:07.227Z,96.30
2019-04-04T08:03:44.315Z,96.20
2019-04-04T08:04:21.826Z,96.60
2019-04-04T08:04:59.281Z,96.50
2019-04-04T08:05:36.718Z,96.50
2019-04-04T08:06:14.633Z,96.60
2019-04-04T08:06:52.153Z,96.60
2019-04-04T08:07:29.923Z,96.50
2019-04-04T08:08:07.481Z,96.30
2019-04-04T08:08:44.976Z,96.20
2019-04-04T08:09:22.196Z,96.00
2019-04-04T08:10:00.166Z,96.00
2019-04-04T08:10:38.037Z,95.80
2019-04-04T08:11:15.767Z,95.90